Bewolking Meer informatie Parkstad Weather Satellite


Neerslag Meer informatie Parkstad Rain Snow Radar


Onweersbuien Meer informatie Parkstad Lighntning


24/7 Weercamera Meer informatie Parkstad Weathercam


Natuurbrandrisico
CBI






Het weer levert geen direct gevaar op in Parkstad.    Er zijn geen waarschuwingen afgegeven voor Parkstad (045)

METAR rapporten vliegvelden

   
EHBK - Beek Nederland
Gewijzigd: 10-12-2018 05:25
Licht bewolkt  
Licht bewolkt  
   Wind: Westen 11.1 km/h
Wind: Westen 11.1 km/h
Temperatuur: 4°C
Voelt als: 1°C
Dauwpunt: 3°C
Vochtigheid: 93%
Barometer: 1020 hPa
Satelliet beelden: Licht bewolkt
Zicht: meer dan 10 km
Bewolking: Licht bewolkt 457 m
EHBK 100425Z AUTO 26006KT 190V310 9999 FEW015CB 04/03 Q1020
EHBK - Maastricht Nederland
Gewijzigd: 10-12-2018 05:25
Licht bewolkt  
Licht bewolkt  
   Wind: Westen 11.1 km/h
Wind: Westen 11.1 km/h
Temperatuur: 4°C
Voelt als: 1°C
Dauwpunt: 3°C
Vochtigheid: 93%
Barometer: 1020 hPa
Satelliet beelden: Licht bewolkt
Zicht: meer dan 10 km
Bewolking: Licht bewolkt 457 m
EHBK 100425Z AUTO 26006KT 190V310 9999 FEW015CB 04/03 Q1020
EBLG - Liège België
Gewijzigd: 10-12-2018 05:20
Licht bewolkt  
Licht bewolkt  
   Wind: Westen 16.7 km/h
Wind: Westen 16.7 km/h
Temperatuur: 3°C
Voelt als: -1°C
Dauwpunt: 2°C
Vochtigheid: 93%
Barometer: 1020 hPa
Satelliet beelden: Licht bewolkt
Zicht: meer dan 10 km
Bewolking: Licht bewolkt 701 m
EBLG 100420Z 27009KT 9999 FEW023 03/02 Q1020 NOSIG
EDDK - Köln/Bonn Duitsland
Gewijzigd: 10-12-2018 05:20
Gedeeltelijk bewolkt  
Gedeeltelijk bewolkt  
   Wind: Westen 18.5 km/h
Wind: Westen 18.5 km/h
Temperatuur: 5°C
Voelt als: 1°C
Dauwpunt: 2°C
Vochtigheid: 81%
Barometer: 1018 hPa
Satelliet beelden: Gedeeltelijk bewolkt
Zicht: meer dan 10 km
Bewolking: Licht bewolkt 457 m,
Gedeeltelijk bewolkt 1097 m
EDDK 100420Z 28010KT 9999 FEW015 SCT036 05/02 Q1018 NOSIG
EDDL - Düsseldorf Duitsland
Gewijzigd: 10-12-2018 05:20
Nabijgelegen buien, Licht bewolkt  
Nabijgelegen buien, Licht bewolkt  
   Wind: Westen 20.4 km/h
Wind: Westen 20.4 km/h
Temperatuur: 5°C
Voelt als: 1°C
Dauwpunt: 3°C
Vochtigheid: 87%
Barometer: 1018 hPa
Satelliet beelden: Licht bewolkt
Zicht: meer dan 10 km
Bewolking: Licht bewolkt 671 m,
Licht bewolkt 914 m
EDDL 100420Z 26011KT 9999 VCSH FEW022 FEW030CB 05/03 Q1018 NOSIG
EHEH - Eindhoven Nederland
Gewijzigd: 10-12-2018 05:38
Bewolking  
Bewolking  
   Wind: Westen 14.8 km/h
Wind: Westen 14.8 km/h
Temperatuur: 5°C
Voelt als: 2°C
Dauwpunt: 3°C
Vochtigheid: 87%
Barometer: 1020 hPa
Satelliet beelden: Bewolking
Zicht: meer dan 10 km
Bewolking: Gedeeltelijk bewolkt 701 m,
Bewolking 793 m
EHEH 100438Z AUTO 27008KT 230V320 9999 SCT023 OVC026 05/03 Q1020 WHT
ELLX - Luxemburg Luxemburg
Gewijzigd: 10-12-2018 05:20
Grotendeels bewolkt  
Grotendeels bewolkt  
   Wind: Westen 18.5 km/h
Wind: Westen 18.5 km/h
Temperatuur: 3°C
Voelt als: -1°C
Dauwpunt: 2°C
Vochtigheid: 93%
Barometer: 1020 hPa
Satelliet beelden: Grotendeels bewolkt
Zicht: meer dan 10 km
Bewolking: Grotendeels bewolkt 914 m
ELLX 100420Z 28010KT 9999 BKN030 03/02 Q1020 NOSIG
EGLL - London England
Gewijzigd: 10-12-2018 05:20
Grotendeels bewolkt  
Grotendeels bewolkt  
   Wind: Westen 13 km/h
Wind: Westen 13 km/h
Temperatuur: 7°C
Voelt als: 4°C
Dauwpunt: 5°C
Vochtigheid: 87%
Barometer: 1025 hPa
Satelliet beelden: Grotendeels bewolkt
Zicht: meer dan 10 km
Bewolking: Grotendeels bewolkt 1341 m
EGLL 100420Z AUTO 27007KT 9999 BKN044 07/05 Q1025 NOSIG
EBAW - Antwerpen België
Gewijzigd: 10-12-2018 05:20
Helder  
Helder  
   Wind: Westen 13 km/h
Wind: Westen 13 km/h
Temperatuur: 5°C
Voelt als: 2°C
Dauwpunt: 3°C
Vochtigheid: 87%
Barometer: 1021 hPa
Zicht: meer dan 10 km
Bewolking: Helder
EBAW 100420Z AUTO 27007KT CAVOK 05/03 Q1021
EBOS - Oostende België
Gewijzigd: 10-12-2018 05:20
Gedeeltelijk bewolkt  
Gedeeltelijk bewolkt  
   Wind: NW 29.6 km/h
Wind: NW 29.6 km/h
Temperatuur: 8°C
Voelt als: 4°C
Dauwpunt: 4°C
Vochtigheid: 76%
Barometer: 1022 hPa
Satelliet beelden: Gedeeltelijk bewolkt
Zicht: meer dan 10 km
Bewolking: Licht bewolkt 732 m,
Gedeeltelijk bewolkt 914 m
EBOS 100420Z 31016KT 9999 FEW024 SCT030 08/04 Q1022 NOSIG
LEAL - La Nucia Spanje
Gewijzigd: 10-12-2018 05:30
Helder  
Helder  
   Wind: NNW 5.6 km/h
Wind: NNW 5.6 km/h
Temperatuur: 10°C
Voelt als: 9°C
Dauwpunt: 3°C
Vochtigheid: 62%
Barometer: 1027 hPa
Zicht: meer dan 10 km
Bewolking: Helder
LEAL 100430Z 33003KT 290V360 CAVOK 10/03 Q1027 NOSIG
TNCA - Oranjestad Aruba
Gewijzigd: 10-12-2018 05:00
Licht bewolkt  
Licht bewolkt  
   Wind: Oosten 29.6 km/h
Wind: Oosten 29.6 km/h
Temperatuur: 26°C
Dauwpunt: 21°C
Vochtigheid: 74%
Barometer: 1014 hPa
Satelliet beelden: Licht bewolkt
Zicht: meer dan 10 km
Bewolking: Licht bewolkt 549 m
TNCA 100400Z 10016KT 9999 FEW018 26/21 Q1014 NOSIG
TNCC - Willemstad Curacao
Gewijzigd: 10-12-2018 05:00
Gedeeltelijk bewolkt  
Gedeeltelijk bewolkt  
   Wind: OZO 18.5 km/h
Wind: OZO 18.5 km/h
Temperatuur: 26°C
Dauwpunt: 21°C
Vochtigheid: 74%
Barometer: 1015 hPa
Satelliet beelden: Gedeeltelijk bewolkt
Zicht: meer dan 10 km
Bewolking: Gedeeltelijk bewolkt
TNCC 100400Z AUTO 12010KT 9999 NSC 26/21 Q1015 NOSIG
MTPP - Port au Prince Haitië
Gewijzigd: 10-12-2018 02:00
Verouderd
Licht bewolkt  
Licht bewolkt  
   Wind: Oosten 22.2 km/h
Wind: Oosten 22.2 km/h
Temperatuur: 26°C
Dauwpunt: 22°C
Vochtigheid: 79%
Barometer: 1015 hPa
Satelliet beelden: Licht bewolkt
Zicht: 9 km
Bewolking: Licht bewolkt 671 m
MTPP 100100Z 10012KT 9000 FEW022 26/22 Q1015 A2999
ENVA - Trondheim Noorwegen
Gewijzigd: 10-12-2018 05:20
Lichte (mot)regen, Neerslag, Grotendeels bewolkt  
Lichte (mot)regen, Neerslag, Grotendeels bewolkt  
   Wind: varieert 5.6 km/h
Wind: varieert 5.6 km/h
Temperatuur: 1°C
Voelt als: -1°C
Dauwpunt: 1°C
Vochtigheid: 100%
Barometer: 996 hPa
Satelliet beelden: Grotendeels bewolkt
Zicht: meer dan 10 km
Bewolking: Licht bewolkt 366 m,
Gedeeltelijk bewolkt 610 m,
Grotendeels bewolkt 823 m
ENVA 100420Z VRB03KT 9999 -DZRA FEW012 SCT020 BKN027 01/01 Q0996 RMK WIND 670FT 32011KT
ENBO - Bodø Noorwegen
Gewijzigd: 10-12-2018 05:20
Grotendeels bewolkt  
Grotendeels bewolkt  
   Wind: ONO 13 km/h
Wind: ONO 13 km/h
Temperatuur: 1°C
Voelt als: -3°C
Dauwpunt: -1°C
Vochtigheid: 87%
Barometer: 998 hPa
Satelliet beelden: Grotendeels bewolkt
Zicht: meer dan 10 km
Bewolking: Licht bewolkt 610 m,
Gedeeltelijk bewolkt 1524 m,
Grotendeels bewolkt 6096 m
ENBO 100420Z 07007KT 9999 FEW020 SCT050 BKN200 01/M01 Q0998 NOSIG
ETNG - Geilenkirchen Duitsland
Gewijzigd: 10-12-2018 04:50
Grotendeels bewolkt  
Grotendeels bewolkt  
   Wind: Westen 24.1 km/h
Wind: Westen 24.1 km/h
Temperatuur: 5°C
Voelt als: 1°C
Dauwpunt: 3°C
Vochtigheid: 87%
Barometer: 1019 hPa
Satelliet beelden: Grotendeels bewolkt
Zicht: meer dan 10 km
Bewolking: Licht bewolkt 396 m,
Gedeeltelijk bewolkt 914 m,
Grotendeels bewolkt 1524 m
ETNG 100350Z 27013KT 9999 FEW013 SCT030 BKN050 05/03 Q1019
 

Script ontwikkeld door  Saratoga-weather.org Aangepast voor de template door  Weerstation Leuven

U vindt ons ook hier:

Het Weer Aktueel

WOW Nederland KNMI

Vereniging voor Weerkunde en Klimatologie

UK Met Office Weather Observation Website (WOW)

WeatherCloud

Weather Underground

Awekas

Weatherlink IP

HAMweather, WeatherForYou, PWS Weather

Citizen Weather Observer Program (CWOP)

Apparatuur in gebruik:

Hardwareleverancier
Weerhuisje

Weerstation
Vantage Pro2+ UV

Weercomputer's
alix3d2 & wl330n

Weerprogramma's
Smartbedded

Satelliet NOAA's
WRX137 & KX137

Satelliet Eumetsat
Ayecka SR1 & Triax

Bliksemdetectie
Boltek StormTracker

Webleverancier
F-Service

Weerhuisje

Vantage Pro2+ UV

alix3d2 & wl330n

Smartbedded

WRX137 & KX137

Ayecka SR1 & Triax

Boltek StormTracker

F-Service